Melanie-h+3barge — KVB — position and weather

sailwx.info

Track history (hours):
 
Tides and Currents Weather Stations Pressure Air Temp Water Temp Dewpoint Dewpoint Depression Visibility Wind Speed Wind Dir Waves Ship Positions

Melanie-h+3barge

Last reported at 2017-Oct-20 10:57 UTC. Time now 2017-Oct-20 11:04 UTC.
Position N 44°07' E 028°39'.

Length 172 m; draft 2.3 m.

Type: Ship. MMSI: 243071713.

Date/timePositionNaut miles runAvg speedWind from/ knotsBaromVisibWave heightAir tempDewpointWater temp
2017-Oct-20 10:57N 44°07' E 028°39'0 0.0
2017-Oct-20 10:30N 44°07' E 028°39'0 0.0
2017-Oct-20 10:00N 44°07' E 028°39'0 0.0
2017-Oct-20 09:30N 44°07' E 028°39'0 0.0
2017-Oct-20 09:00N 44°07' E 028°39'0 0.0
2017-Oct-20 08:30N 44°07' E 028°39'0 0.0
2017-Oct-20 08:00N 44°07' E 028°39'0 0.0
2017-Oct-20 07:30N 44°07' E 028°39'0 0.0
2017-Oct-20 06:57N 44°07' E 028°39'0 0.0
2017-Oct-20 06:30N 44°07' E 028°39'0 0.0
2017-Oct-20 06:00N 44°07' E 028°39'0 0.8
2017-Oct-20 05:30N 44°07' E 028°39'1 2.6
2017-Oct-20 04:59N 44°06' E 028°38'0 0.0
2017-Oct-20 04:23N 44°06' E 028°38'0 0.0
2017-Oct-20 03:56N 44°06' E 028°38'0 0.0
2017-Oct-20 03:29N 44°06' E 028°38'0 0.0
2017-Oct-20 02:50N 44°06' E 028°38'0 0.0
2017-Oct-20 02:26N 44°06' E 028°38'0 0.0
2017-Oct-20 01:53N 44°06' E 028°38'0 0.0
2017-Oct-20 01:29N 44°06' E 028°38'0 0.0
2017-Oct-20 00:26N 44°06' E 028°38'0 0.0
2017-Oct-19 23:57N 44°06' E 028°38'0 0.0
2017-Oct-19 23:30N 44°06' E 028°38'0 0.5
2017-Oct-19 23:00N 44°06' E 028°37'0 0.4
2017-Oct-19 22:30N 44°06' E 028°37'1 2.7
2017-Oct-19 22:00N 44°06' E 028°35'7 4.3
2017-Oct-19 20:18N 44°09' E 028°26'2 5.3
2017-Oct-19 20:00N 44°10' E 028°24'3 5.2
2017-Oct-19 19:30N 44°13' E 028°23'3 5.5
2017-Oct-19 19:00N 44°15' E 028°21'3 5.4
2017-Oct-19 18:28N 44°15' E 028°17'3 5.3
2017-Oct-19 17:54N 44°16' E 028°12'2 5.4
2017-Oct-19 17:30N 44°16' E 028°09'18 0.8
2017-Oct-18 19:17N 44°30' E 027°54'2 5.9
2017-Oct-18 18:57N 44°29' E 027°56'3 6.4
2017-Oct-18 18:29N 44°26' E 027°56'7 6.3
2017-Oct-18 17:25N 44°21' E 027°50'  
2017-Oct-15 23:47N 44°31' E 022°12'2 6.0
2017-Oct-15 23:30N 44°29' E 022°11'3 5.3
2017-Oct-15 23:01N 44°29' E 022°08'3 5.8
2017-Oct-15 22:31N 44°31' E 022°05'3 6.0
2017-Oct-15 22:01N 44°33' E 022°02'3 6.2
2017-Oct-15 21:30N 44°36' E 022°01'15 6.0
2017-Oct-15 19:05N 44°40' E 021°41'0 5.9
2017-Oct-15 19:01N 44°40' E 021°41'4 5.8
2017-Oct-15 18:23N 44°43' E 021°37'2 5.8
2017-Oct-15 18:01N 44°45' E 021°36'4 5.9
2017-Oct-15 17:23N 44°46' E 021°31'1 1.4
2017-Oct-15 17:01N 44°46' E 021°31'0 0.3
2017-Oct-15 16:30N 44°46' E 021°31'0 0.2
2017-Oct-15 15:21N 44°46' E 021°31'0 0.0
2017-Oct-15 15:00N 44°46' E 021°31'0 0.0
2017-Oct-15 14:00N 44°46' E 021°31'0 0.0
2017-Oct-15 12:53N 44°46' E 021°31'0 0.0
2017-Oct-15 12:30N 44°46' E 021°31'0 0.0
2017-Oct-15 11:45N 44°46' E 021°31'0 0.0
2017-Oct-15 11:22N 44°46' E 021°31'0 0.7
2017-Oct-15 10:53N 44°46' E 021°31'1 3.1
2017-Oct-15 10:30N 44°46' E 021°29'3 6.0
2017-Oct-15 09:59N 44°46' E 021°25'7 4.8
2017-Oct-15 08:36N 44°48' E 021°16'1 6.1
2017-Oct-15 08:30N 44°47' E 021°15'3 6.3
2017-Oct-15 08:00N 44°46' E 021°11'3 6.1
2017-Oct-15 07:30N 44°44' E 021°08'3 6.2
2017-Oct-15 07:01N 44°43' E 021°03'3 6.0
2017-Oct-15 06:31N 44°43' E 020°59'3 6.1
2017-Oct-15 06:01N 44°41' E 020°56'3 5.7
2017-Oct-15 05:31N 44°40' E 020°52'3 6.2
2017-Oct-15 05:01N 44°39' E 020°48'3 6.0
2017-Oct-15 04:31N 44°41' E 020°44'2 3.7
2017-Oct-15 04:00N 44°42' E 020°42'0 0.0
2017-Oct-15 03:30N 44°42' E 020°42'0 0.0
2017-Oct-15 03:01N 44°42' E 020°42'0 0.0
2017-Oct-15 02:30N 44°42' E 020°42'0 0.0
2017-Oct-15 02:00N 44°42' E 020°42'0 0.0
2017-Oct-15 01:30N 44°42' E 020°42'3 2.5
2017-Oct-15 00:29N 44°44' E 020°40'3 6.1
2017-Oct-15 00:00N 44°46' E 020°38'3 6.2
2017-Oct-14 23:30N 44°49' E 020°39'3 5.7
2017-Oct-14 23:00N 44°51' E 020°36'3 6.3
2017-Oct-14 22:30N 44°50' E 020°32'3 6.2
2017-Oct-14 22:00N 44°50' E 020°28'3 6.6
2017-Oct-14 21:30N 44°51' E 020°24'3 6.5
2017-Oct-14 21:00N 44°54' E 020°21'3 6.8
2017-Oct-14 20:31N 44°57' E 020°18'3 6.0
2017-Oct-14 20:00N 44°60' E 020°19'3 6.1
2017-Oct-14 19:30N 45°02' E 020°22'4 6.8
2017-Oct-14 18:54N 45°05' E 020°19'3 6.8
2017-Oct-14 18:30N 45°08' E 020°17'4 7.2
2017-Oct-14 18:00N 45°10' E 020°13'4 6.6
2017-Oct-14 17:22N 45°10' E 020°07'4 7.3
2017-Oct-14 16:52N 45°10' E 020°02'4 6.7
2017-Oct-14 16:18N 45°12' E 019°57'8 0.3
2017-Oct-13 17:07N 45°14' E 019°46'2 7.0
2017-Oct-13 16:50N 45°14' E 019°43'7 7.0
2017-Oct-13 15:54N 45°13' E 019°34'3 5.0
2017-Oct-13 15:15N 45°15' E 019°30'2 6.6
2017-Oct-13 14:58N 45°14' E 019°27'3 6.8
2017-Oct-13 14:30N 45°14' E 019°23'8 6.7
2017-Oct-13 13:18N 45°16' E 019°12'2 6.7
2017-Oct-13 13:00N 45°17' E 019°09'3 6.1
2017-Oct-13 12:31N 45°19' E 019°06'3 5.5
2017-Oct-13 12:01N 45°21' E 019°03'3 6.4
2017-Oct-13 11:30N 45°22' E 018°59'2 4.3
2017-Oct-13 10:57N 45°24' E 019°01'2 4.4
2017-Oct-13 10:30N 45°26' E 019°00'3 6.0
2017-Oct-13 10:01N 45°29' E 018°59'2 4.8
2017-Oct-13 09:31N 45°29' E 019°03'3 5.8
2017-Oct-13 09:01N 45°31' E 019°06'3 6.3
2017-Oct-13 08:31N 45°32' E 019°02'2 3.9
2017-Oct-13 08:01N 45°32' E 018°59'3 6.1
2017-Oct-13 07:31N 45°33' E 018°55'2 4.5
2017-Oct-13 07:01N 45°35' E 018°54'3 5.3
2017-Oct-13 06:31N 45°38' E 018°56'3 5.8
2017-Oct-13 06:01N 45°40' E 018°58'3 6.7
2017-Oct-13 05:31N 45°43' E 018°54'4 7.1
2017-Oct-13 05:00N 45°46' E 018°53'3 6.3
2017-Oct-13 04:30N 45°49' E 018°51'1 2.9
2017-Oct-13 03:59N 45°51' E 018°51'0 0.0
2017-Oct-13 03:29N 45°51' E 018°51'0 0.0
2017-Oct-13 02:45N 45°51' E 018°51'0 0.0
2017-Oct-13 01:43N 45°51' E 018°51'0 0.1
2017-Oct-13 01:26N 45°51' E 018°51'2 4.0
2017-Oct-13 00:59N 45°52' E 018°50'10 3.6
2017-Oct-12 22:03N 46°00' E 018°41'  
Track history (hours):
 
Tides and Currents Weather Stations Pressure Air Temp Water Temp Dewpoint Dewpoint Depression Visibility Wind Speed Wind Dir Waves Ship Positions

Melanie-h+3barge

Last reported at 2017-Oct-20 10:57 UTC. Time now 2017-Oct-20 11:04 UTC.
Position N 44°07' E 028°39'.

Length 172 m; draft 2.3 m.

Type: Ship. MMSI: 243071713.

Date/timePositionNaut miles runAvg speedWind from/ knotsBaromVisibWave heightAir tempDewpointWater temp
2017-Oct-20 10:57N 44°07' E 028°39'0 0.0
2017-Oct-20 10:30N 44°07' E 028°39'0 0.0
2017-Oct-20 10:00N 44°07' E 028°39'0 0.0
2017-Oct-20 09:30N 44°07' E 028°39'0 0.0
2017-Oct-20 09:00N 44°07' E 028°39'0 0.0
2017-Oct-20 08:30N 44°07' E 028°39'0 0.0
2017-Oct-20 08:00N 44°07' E 028°39'0 0.0
2017-Oct-20 07:30N 44°07' E 028°39'0 0.0
2017-Oct-20 06:57N 44°07' E 028°39'0 0.0
2017-Oct-20 06:30N 44°07' E 028°39'0 0.0
2017-Oct-20 06:00N 44°07' E 028°39'0 0.8
2017-Oct-20 05:30N 44°07' E 028°39'1 2.6
2017-Oct-20 04:59N 44°06' E 028°38'0 0.0
2017-Oct-20 04:23N 44°06' E 028°38'0 0.0
2017-Oct-20 03:56N 44°06' E 028°38'0 0.0
2017-Oct-20 03:29N 44°06' E 028°38'0 0.0
2017-Oct-20 02:50N 44°06' E 028°38'0 0.0
2017-Oct-20 02:26N 44°06' E 028°38'0 0.0
2017-Oct-20 01:53N 44°06' E 028°38'0 0.0
2017-Oct-20 01:29N 44°06' E 028°38'0 0.0
2017-Oct-20 00:26N 44°06' E 028°38'0 0.0
2017-Oct-19 23:57N 44°06' E 028°38'0 0.0
2017-Oct-19 23:30N 44°06' E 028°38'0 0.5
2017-Oct-19 23:00N 44°06' E 028°37'0 0.4
2017-Oct-19 22:30N 44°06' E 028°37'1 2.7
2017-Oct-19 22:00N 44°06' E 028°35'7 4.3
2017-Oct-19 20:18N 44°09' E 028°26'2 5.3
2017-Oct-19 20:00N 44°10' E 028°24'3 5.2
2017-Oct-19 19:30N 44°13' E 028°23'3 5.5
2017-Oct-19 19:00N 44°15' E 028°21'3 5.4
2017-Oct-19 18:28N 44°15' E 028°17'3 5.3
2017-Oct-19 17:54N 44°16' E 028°12'2 5.4
2017-Oct-19 17:30N 44°16' E 028°09'18 0.8
2017-Oct-18 19:17N 44°30' E 027°54'2 5.9
2017-Oct-18 18:57N 44°29' E 027°56'3 6.4
2017-Oct-18 18:29N 44°26' E 027°56'7 6.3
2017-Oct-18 17:25N 44°21' E 027°50'  
2017-Oct-15 23:47N 44°31' E 022°12'2 6.0
2017-Oct-15 23:30N 44°29' E 022°11'3 5.3
2017-Oct-15 23:01N 44°29' E 022°08'3 5.8
2017-Oct-15 22:31N 44°31' E 022°05'3 6.0
2017-Oct-15 22:01N 44°33' E 022°02'3 6.2
2017-Oct-15 21:30N 44°36' E 022°01'15 6.0
2017-Oct-15 19:05N 44°40' E 021°41'0 5.9
2017-Oct-15 19:01N 44°40' E 021°41'4 5.8
2017-Oct-15 18:23N 44°43' E 021°37'2 5.8
2017-Oct-15 18:01N 44°45' E 021°36'4 5.9
2017-Oct-15 17:23N 44°46' E 021°31'1 1.4
2017-Oct-15 17:01N 44°46' E 021°31'0 0.3
2017-Oct-15 16:30N 44°46' E 021°31'0 0.2
2017-Oct-15 15:21N 44°46' E 021°31'0 0.0
2017-Oct-15 15:00N 44°46' E 021°31'0 0.0
2017-Oct-15 14:00N 44°46' E 021°31'0 0.0
2017-Oct-15 12:53N 44°46' E 021°31'0 0.0
2017-Oct-15 12:30N 44°46' E 021°31'0 0.0
2017-Oct-15 11:45N 44°46' E 021°31'0 0.0
2017-Oct-15 11:22N 44°46' E 021°31'0 0.7
2017-Oct-15 10:53N 44°46' E 021°31'1 3.1
2017-Oct-15 10:30N 44°46' E 021°29'3 6.0
2017-Oct-15 09:59N 44°46' E 021°25'7 4.8
2017-Oct-15 08:36N 44°48' E 021°16'1 6.1
2017-Oct-15 08:30N 44°47' E 021°15'3 6.3
2017-Oct-15 08:00N 44°46' E 021°11'3 6.1
2017-Oct-15 07:30N 44°44' E 021°08'3 6.2
2017-Oct-15 07:01N 44°43' E 021°03'3 6.0
2017-Oct-15 06:31N 44°43' E 020°59'3 6.1
2017-Oct-15 06:01N 44°41' E 020°56'3 5.7
2017-Oct-15 05:31N 44°40' E 020°52'3 6.2
2017-Oct-15 05:01N 44°39' E 020°48'3 6.0
2017-Oct-15 04:31N 44°41' E 020°44'2 3.7
2017-Oct-15 04:00N 44°42' E 020°42'0 0.0
2017-Oct-15 03:30N 44°42' E 020°42'0 0.0
2017-Oct-15 03:01N 44°42' E 020°42'0 0.0
2017-Oct-15 02:30N 44°42' E 020°42'0 0.0
2017-Oct-15 02:00N 44°42' E 020°42'0 0.0
2017-Oct-15 01:30N 44°42' E 020°42'3 2.5
2017-Oct-15 00:29N 44°44' E 020°40'3 6.1
2017-Oct-15 00:00N 44°46' E 020°38'3 6.2
2017-Oct-14 23:30N 44°49' E 020°39'3 5.7
2017-Oct-14 23:00N 44°51' E 020°36'3 6.3
2017-Oct-14 22:30N 44°50' E 020°32'3 6.2
2017-Oct-14 22:00N 44°50' E 020°28'3 6.6
2017-Oct-14 21:30N 44°51' E 020°24'3 6.5
2017-Oct-14 21:00N 44°54' E 020°21'3 6.8
2017-Oct-14 20:31N 44°57' E 020°18'3 6.0
2017-Oct-14 20:00N 44°60' E 020°19'3 6.1
2017-Oct-14 19:30N 45°02' E 020°22'4 6.8
2017-Oct-14 18:54N 45°05' E 020°19'3 6.8
2017-Oct-14 18:30N 45°08' E 020°17'4 7.2
2017-Oct-14 18:00N 45°10' E 020°13'4 6.6
2017-Oct-14 17:22N 45°10' E 020°07'4 7.3
2017-Oct-14 16:52N 45°10' E 020°02'4 6.7
2017-Oct-14 16:18N 45°12' E 019°57'8 0.3
2017-Oct-13 17:07N 45°14' E 019°46'2 7.0
2017-Oct-13 16:50N 45°14' E 019°43'7 7.0
2017-Oct-13 15:54N 45°13' E 019°34'3 5.0
2017-Oct-13 15:15N 45°15' E 019°30'2 6.6
2017-Oct-13 14:58N 45°14' E 019°27'3 6.8
2017-Oct-13 14:30N 45°14' E 019°23'8 6.7
2017-Oct-13 13:18N 45°16' E 019°12'2 6.7
2017-Oct-13 13:00N 45°17' E 019°09'3 6.1
2017-Oct-13 12:31N 45°19' E 019°06'3 5.5
2017-Oct-13 12:01N 45°21' E 019°03'3 6.4
2017-Oct-13 11:30N 45°22' E 018°59'2 4.3
2017-Oct-13 10:57N 45°24' E 019°01'2 4.4
2017-Oct-13 10:30N 45°26' E 019°00'3 6.0
2017-Oct-13 10:01N 45°29' E 018°59'2 4.8
2017-Oct-13 09:31N 45°29' E 019°03'3 5.8
2017-Oct-13 09:01N 45°31' E 019°06'3 6.3
2017-Oct-13 08:31N 45°32' E 019°02'2 3.9
2017-Oct-13 08:01N 45°32' E 018°59'3 6.1
2017-Oct-13 07:31N 45°33' E 018°55'2 4.5
2017-Oct-13 07:01N 45°35' E 018°54'3 5.3
2017-Oct-13 06:31N 45°38' E 018°56'3 5.8
2017-Oct-13 06:01N 45°40' E 018°58'3 6.7
2017-Oct-13 05:31N 45°43' E 018°54'4 7.1
2017-Oct-13 05:00N 45°46' E 018°53'3 6.3
2017-Oct-13 04:30N 45°49' E 018°51'1 2.9
2017-Oct-13 03:59N 45°51' E 018°51'0 0.0
2017-Oct-13 03:29N 45°51' E 018°51'0 0.0
2017-Oct-13 02:45N 45°51' E 018°51'0 0.0
2017-Oct-13 01:43N 45°51' E 018°51'0 0.1
2017-Oct-13 01:26N 45°51' E 018°51'2 4.0
2017-Oct-13 00:59N 45°52' E 018°50'10 3.6
2017-Oct-12 22:03N 46°00' E 018°41'  

Dump ship's entire track history